sensor_id;sensor_type;location;lat;lon;timestamp;P1;durP1;ratioP1;P2;durP2;ratioP2
66597;SDS011;57424;53.128;6.406;2024-02-16T00:00:16;6.47;;;3.72;;
66597;SDS011;57424;53.128;6.406;2024-02-16T00:02:42;5.50;;;4.07;;
66597;SDS011;57424;53.128;6.406;2024-02-16T00:05:09;9.52;;;3.90;;
66597;SDS011;57424;53.128;6.406;2024-02-16T00:07:38;5.25;;;3.80;;
66597;SDS011;57424;53.128;6.406;2024-02-16T00:10:07;6.20;;;3.85;;
66597;SDS011;57424;53.128;6.406;2024-02-16T00:12:39;7.50;;;3.83;;
66597;SDS011;57424;53.128;6.406;2024-02-16T00:15:05;5.80;;;3.65;;
66597;SDS011;57424;53.128;6.406;2024-02-16T00:17:31;5.60;;;3.97;;
66597;SDS011;57424;53.128;6.406;2024-02-16T00:19:58;6.32;;;3.85;;
66597;SDS011;57424;53.128;6.406;2024-02-16T00:22:24;6.93;;;3.60;;
66597;SDS011;57424;53.128;6.406;2024-02-16T00:24:50;8.05;;;3.47;;
66597;SDS011;57424;53.128;6.406;2024-02-16T00:27:16;5.13;;;3.47;;
66597;SDS011;57424;53.128;6.406;2024-02-16T00:29:42;4.97;;;3.90;;
66597;SDS011;57424;53.128;6.406;2024-02-16T00:32:08;8.25;;;3.50;;
66597;SDS011;57424;53.128;6.406;2024-02-16T00:34:37;4.95;;;3.15;;
66597;SDS011;57424;53.128;6.406;2024-02-16T00:37:03;5.20;;;3.50;;
66597;SDS011;57424;53.128;6.406;2024-02-16T00:39:30;6.65;;;3.25;;
66597;SDS011;57424;53.128;6.406;2024-02-16T00:41:55;7.22;;;3.67;;
66597;SDS011;57424;53.128;6.406;2024-02-16T00:44:21;7.43;;;3.47;;
66597;SDS011;57424;53.128;6.406;2024-02-16T00:46:47;6.45;;;3.10;;
66597;SDS011;57424;53.128;6.406;2024-02-16T00:49:12;4.13;;;3.20;;
66597;SDS011;57424;53.128;6.406;2024-02-16T00:51:38;4.93;;;3.17;;
66597;SDS011;57424;53.128;6.406;2024-02-16T00:54:05;5.80;;;3.30;;
66597;SDS011;57424;53.128;6.406;2024-02-16T00:56:34;6.07;;;3.28;;
66597;SDS011;57424;53.128;6.406;2024-02-16T00:59:00;6.38;;;3.55;;
66597;SDS011;57424;53.128;6.406;2024-02-16T01:01:25;6.60;;;3.17;;
66597;SDS011;57424;53.128;6.406;2024-02-16T01:03:54;5.30;;;3.00;;
66597;SDS011;57424;53.128;6.406;2024-02-16T01:06:19;6.72;;;3.20;;
66597;SDS011;57424;53.128;6.406;2024-02-16T01:08:45;8.18;;;3.60;;
66597;SDS011;57424;53.128;6.406;2024-02-16T01:11:11;5.68;;;3.45;;
66597;SDS011;57424;53.128;6.406;2024-02-16T01:13:38;8.40;;;3.95;;
66597;SDS011;57424;53.128;6.406;2024-02-16T01:16:04;5.80;;;3.30;;
66597;SDS011;57424;53.128;6.406;2024-02-16T01:18:30;6.95;;;3.60;;
66597;SDS011;57424;53.128;6.406;2024-02-16T01:20:57;4.93;;;3.40;;
66597;SDS011;57424;53.128;6.406;2024-02-16T01:23:23;5.65;;;3.28;;
66597;SDS011;57424;53.128;6.406;2024-02-16T01:25:49;7.80;;;3.72;;
66597;SDS011;57424;53.128;6.406;2024-02-16T01:28:14;4.95;;;3.03;;
66597;SDS011;57424;53.128;6.406;2024-02-16T01:30:41;7.18;;;3.22;;
66597;SDS011;57424;53.128;6.406;2024-02-16T01:33:06;5.88;;;3.20;;
66597;SDS011;57424;53.128;6.406;2024-02-16T01:35:33;4.70;;;3.38;;
66597;SDS011;57424;53.128;6.406;2024-02-16T01:37:59;6.28;;;3.00;;
66597;SDS011;57424;53.128;6.406;2024-02-16T01:40:26;6.35;;;3.25;;
66597;SDS011;57424;53.128;6.406;2024-02-16T01:42:52;4.25;;;3.33;;
66597;SDS011;57424;53.128;6.406;2024-02-16T01:45:20;6.10;;;3.60;;
66597;SDS011;57424;53.128;6.406;2024-02-16T01:47:47;5.60;;;3.40;;
66597;SDS011;57424;53.128;6.406;2024-02-16T01:50:15;5.80;;;3.78;;
66597;SDS011;57424;53.128;6.406;2024-02-16T01:52:42;7.00;;;3.53;;
66597;SDS011;57424;53.128;6.406;2024-02-16T01:55:09;5.30;;;3.20;;
66597;SDS011;57424;53.128;6.406;2024-02-16T01:57:35;6.45;;;3.80;;
66597;SDS011;57424;53.128;6.406;2024-02-16T02:00:02;6.78;;;3.47;;
66597;SDS011;57424;53.128;6.406;2024-02-16T02:02:28;5.70;;;3.20;;
66597;SDS011;57424;53.128;6.406;2024-02-16T02:04:54;4.72;;;3.30;;
66597;SDS011;57424;53.128;6.406;2024-02-16T02:07:24;6.75;;;3.80;;
66597;SDS011;57424;53.128;6.406;2024-02-16T02:09:51;6.38;;;3.67;;
66597;SDS011;57424;53.128;6.406;2024-02-16T02:12:17;5.22;;;3.35;;
66597;SDS011;57424;53.128;6.406;2024-02-16T02:14:44;6.95;;;3.58;;
66597;SDS011;57424;53.128;6.406;2024-02-16T02:17:11;7.43;;;3.47;;
66597;SDS011;57424;53.128;6.406;2024-02-16T02:19:37;5.88;;;3.40;;
66597;SDS011;57424;53.128;6.406;2024-02-16T02:22:03;5.25;;;3.28;;
66597;SDS011;57424;53.128;6.406;2024-02-16T02:24:28;5.05;;;3.05;;
66597;SDS011;57424;53.128;6.406;2024-02-16T02:26:54;5.65;;;3.17;;
66597;SDS011;57424;53.128;6.406;2024-02-16T02:29:20;5.18;;;2.63;;
66597;SDS011;57424;53.128;6.406;2024-02-16T02:31:45;7.20;;;3.20;;
66597;SDS011;57424;53.128;6.406;2024-02-16T02:34:11;4.95;;;2.70;;
66597;SDS011;57424;53.128;6.406;2024-02-16T02:36:40;5.95;;;3.70;;
66597;SDS011;57424;53.128;6.406;2024-02-16T02:39:06;6.70;;;3.42;;
66597;SDS011;57424;53.128;6.406;2024-02-16T02:41:32;4.90;;;3.47;;
66597;SDS011;57424;53.128;6.406;2024-02-16T02:43:57;5.93;;;3.10;;
66597;SDS011;57424;53.128;6.406;2024-02-16T02:46:23;5.18;;;2.58;;
66597;SDS011;57424;53.128;6.406;2024-02-16T02:48:49;8.95;;;3.60;;
66597;SDS011;57424;53.128;6.406;2024-02-16T02:51:15;5.25;;;2.85;;
66597;SDS011;57424;53.128;6.406;2024-02-16T02:53:40;4.68;;;3.17;;
66597;SDS011;57424;53.128;6.406;2024-02-16T02:56:06;8.35;;;3.70;;
66597;SDS011;57424;53.128;6.406;2024-02-16T02:58:34;6.32;;;3.40;;
66597;SDS011;57424;53.128;6.406;2024-02-16T03:00:59;4.57;;;2.88;;
66597;SDS011;57424;53.128;6.406;2024-02-16T03:03:25;4.88;;;2.92;;
66597;SDS011;57424;53.128;6.406;2024-02-16T03:05:50;5.47;;;3.35;;
66597;SDS011;57424;53.128;6.406;2024-02-16T03:08:16;6.10;;;3.20;;
66597;SDS011;57424;53.128;6.406;2024-02-16T03:10:42;5.00;;;2.88;;
66597;SDS011;57424;53.128;6.406;2024-02-16T03:13:09;5.17;;;3.10;;
66597;SDS011;57424;53.128;6.406;2024-02-16T03:18:03;4.50;;;2.80;;
66597;SDS011;57424;53.128;6.406;2024-02-16T03:20:34;7.53;;;3.55;;
66597;SDS011;57424;53.128;6.406;2024-02-16T03:23:01;6.25;;;3.13;;
66597;SDS011;57424;53.128;6.406;2024-02-16T03:25:27;4.50;;;2.75;;
66597;SDS011;57424;53.128;6.406;2024-02-16T03:27:52;4.35;;;2.80;;
66597;SDS011;57424;53.128;6.406;2024-02-16T03:30:21;4.43;;;3.00;;
66597;SDS011;57424;53.128;6.406;2024-02-16T03:32:50;6.22;;;3.22;;
66597;SDS011;57424;53.128;6.406;2024-02-16T03:35:16;4.47;;;3.00;;
66597;SDS011;57424;53.128;6.406;2024-02-16T03:37:43;6.38;;;3.00;;
66597;SDS011;57424;53.128;6.406;2024-02-16T03:40:08;6.05;;;3.25;;
66597;SDS011;57424;53.128;6.406;2024-02-16T03:42:35;4.78;;;3.20;;
66597;SDS011;57424;53.128;6.406;2024-02-16T03:45:01;6.53;;;3.50;;
66597;SDS011;57424;53.128;6.406;2024-02-16T03:47:36;5.88;;;2.97;;
66597;SDS011;57424;53.128;6.406;2024-02-16T03:50:02;4.95;;;3.42;;
66597;SDS011;57424;53.128;6.406;2024-02-16T03:52:28;5.63;;;3.28;;
66597;SDS011;57424;53.128;6.406;2024-02-16T03:54:53;5.80;;;3.40;;
66597;SDS011;57424;53.128;6.406;2024-02-16T03:57:19;4.28;;;2.85;;
66597;SDS011;57424;53.128;6.406;2024-02-16T03:59:45;4.25;;;3.20;;
66597;SDS011;57424;53.128;6.406;2024-02-16T04:02:11;5.95;;;2.80;;
66597;SDS011;57424;53.128;6.406;2024-02-16T04:04:38;4.53;;;3.45;;
66597;SDS011;57424;53.128;6.406;2024-02-16T04:07:07;6.30;;;2.95;;
66597;SDS011;57424;53.128;6.406;2024-02-16T04:09:36;5.18;;;3.08;;
66597;SDS011;57424;53.128;6.406;2024-02-16T04:12:01;7.95;;;3.42;;
66597;SDS011;57424;53.128;6.406;2024-02-16T04:14:28;8.40;;;3.00;;
66597;SDS011;57424;53.128;6.406;2024-02-16T04:16:54;5.00;;;2.78;;
66597;SDS011;57424;53.128;6.406;2024-02-16T04:19:22;5.45;;;2.80;;
66597;SDS011;57424;53.128;6.406;2024-02-16T04:21:49;4.63;;;3.20;;
66597;SDS011;57424;53.128;6.406;2024-02-16T04:24:14;5.10;;;3.60;;
66597;SDS011;57424;53.128;6.406;2024-02-16T04:26:43;7.32;;;3.60;;
66597;SDS011;57424;53.128;6.406;2024-02-16T04:29:09;4.68;;;2.80;;
66597;SDS011;57424;53.128;6.406;2024-02-16T04:31:38;4.50;;;3.22;;
66597;SDS011;57424;53.128;6.406;2024-02-16T04:34:04;4.40;;;2.70;;
66597;SDS011;57424;53.128;6.406;2024-02-16T04:36:30;4.07;;;3.08;;
66597;SDS011;57424;53.128;6.406;2024-02-16T04:38:55;4.70;;;3.00;;
66597;SDS011;57424;53.128;6.406;2024-02-16T04:41:21;4.45;;;3.05;;
66597;SDS011;57424;53.128;6.406;2024-02-16T04:43:46;4.90;;;2.95;;
66597;SDS011;57424;53.128;6.406;2024-02-16T04:46:15;4.55;;;3.08;;
66597;SDS011;57424;53.128;6.406;2024-02-16T04:48:41;6.03;;;3.70;;
66597;SDS011;57424;53.128;6.406;2024-02-16T04:51:07;4.43;;;2.83;;
66597;SDS011;57424;53.128;6.406;2024-02-16T04:53:32;8.07;;;3.55;;
66597;SDS011;57424;53.128;6.406;2024-02-16T04:55:58;5.00;;;3.40;;
66597;SDS011;57424;53.128;6.406;2024-02-16T04:58:23;5.40;;;3.28;;
66597;SDS011;57424;53.128;6.406;2024-02-16T05:00:52;4.70;;;2.63;;
66597;SDS011;57424;53.128;6.406;2024-02-16T05:03:18;3.78;;;2.63;;
66597;SDS011;57424;53.128;6.406;2024-02-16T05:05:43;4.53;;;3.00;;
66597;SDS011;57424;53.128;6.406;2024-02-16T05:08:09;4.85;;;3.20;;
66597;SDS011;57424;53.128;6.406;2024-02-16T05:10:34;4.38;;;2.75;;
66597;SDS011;57424;53.128;6.406;2024-02-16T05:13:00;4.78;;;3.10;;
66597;SDS011;57424;53.128;6.406;2024-02-16T05:15:25;6.43;;;3.20;;
66597;SDS011;57424;53.128;6.406;2024-02-16T05:17:51;5.22;;;2.90;;
66597;SDS011;57424;53.128;6.406;2024-02-16T05:20:17;6.00;;;2.90;;
66597;SDS011;57424;53.128;6.406;2024-02-16T05:22:44;7.03;;;3.17;;
66597;SDS011;57424;53.128;6.406;2024-02-16T05:25:13;4.57;;;3.40;;
66597;SDS011;57424;53.128;6.406;2024-02-16T05:27:42;4.43;;;2.92;;
66597;SDS011;57424;53.128;6.406;2024-02-16T05:30:09;6.10;;;3.38;;
66597;SDS011;57424;53.128;6.406;2024-02-16T05:32:37;5.53;;;3.17;;
66597;SDS011;57424;53.128;6.406;2024-02-16T05:35:03;4.28;;;2.97;;
66597;SDS011;57424;53.128;6.406;2024-02-16T05:37:43;4.95;;;3.00;;
66597;SDS011;57424;53.128;6.406;2024-02-16T05:40:12;5.72;;;3.35;;
66597;SDS011;57424;53.128;6.406;2024-02-16T05:42:50;4.85;;;3.17;;
66597;SDS011;57424;53.128;6.406;2024-02-16T05:45:17;4.85;;;2.75;;
66597;SDS011;57424;53.128;6.406;2024-02-16T05:47:43;5.05;;;3.05;;
66597;SDS011;57424;53.128;6.406;2024-02-16T05:50:13;5.70;;;2.90;;
66597;SDS011;57424;53.128;6.406;2024-02-16T05:52:42;4.78;;;2.90;;
66597;SDS011;57424;53.128;6.406;2024-02-16T05:55:09;4.85;;;2.97;;
66597;SDS011;57424;53.128;6.406;2024-02-16T05:57:36;6.10;;;2.85;;
66597;SDS011;57424;53.128;6.406;2024-02-16T06:00:04;4.13;;;3.00;;
66597;SDS011;57424;53.128;6.406;2024-02-16T06:02:33;5.70;;;3.22;;
66597;SDS011;57424;53.128;6.406;2024-02-16T06:05:00;4.90;;;3.00;;
66597;SDS011;57424;53.128;6.406;2024-02-16T06:07:27;4.35;;;2.70;;
66597;SDS011;57424;53.128;6.406;2024-02-16T06:09:54;5.45;;;2.80;;
66597;SDS011;57424;53.128;6.406;2024-02-16T06:12:20;4.73;;;2.80;;
66597;SDS011;57424;53.128;6.406;2024-02-16T06:14:46;3.45;;;2.80;;
66597;SDS011;57424;53.128;6.406;2024-02-16T06:17:13;7.05;;;2.92;;
66597;SDS011;57424;53.128;6.406;2024-02-16T06:22:07;5.65;;;2.67;;
66597;SDS011;57424;53.128;6.406;2024-02-16T06:27:01;4.68;;;2.60;;
66597;SDS011;57424;53.128;6.406;2024-02-16T06:29:28;4.68;;;3.10;;
66597;SDS011;57424;53.128;6.406;2024-02-16T06:31:55;4.15;;;3.10;;
66597;SDS011;57424;53.128;6.406;2024-02-16T06:34:21;6.28;;;3.35;;
66597;SDS011;57424;53.128;6.406;2024-02-16T06:36:46;4.00;;;2.75;;
66597;SDS011;57424;53.128;6.406;2024-02-16T06:39:12;5.57;;;3.03;;
66597;SDS011;57424;53.128;6.406;2024-02-16T06:41:41;5.25;;;2.60;;
66597;SDS011;57424;53.128;6.406;2024-02-16T06:44:12;3.10;;;2.70;;
66597;SDS011;57424;53.128;6.406;2024-02-16T06:46:38;5.97;;;3.70;;
66597;SDS011;57424;53.128;6.406;2024-02-16T06:49:07;6.53;;;3.20;;
66597;SDS011;57424;53.128;6.406;2024-02-16T06:51:32;5.25;;;3.20;;
66597;SDS011;57424;53.128;6.406;2024-02-16T06:53:58;4.45;;;3.05;;
66597;SDS011;57424;53.128;6.406;2024-02-16T06:56:24;4.65;;;3.20;;
66597;SDS011;57424;53.128;6.406;2024-02-16T06:58:49;4.97;;;3.20;;
66597;SDS011;57424;53.128;6.406;2024-02-16T07:01:15;4.93;;;3.45;;
66597;SDS011;57424;53.128;6.406;2024-02-16T07:03:43;4.35;;;2.83;;
66597;SDS011;57424;53.128;6.406;2024-02-16T07:06:12;5.13;;;3.63;;
66597;SDS011;57424;53.128;6.406;2024-02-16T07:08:41;4.32;;;2.97;;
66597;SDS011;57424;53.128;6.406;2024-02-16T07:11:08;5.47;;;3.17;;
66597;SDS011;57424;53.128;6.406;2024-02-16T07:16:07;5.47;;;3.20;;
66597;SDS011;57424;53.128;6.406;2024-02-16T07:18:33;6.15;;;3.10;;
66597;SDS011;57424;53.128;6.406;2024-02-16T07:20:59;5.38;;;3.03;;
66597;SDS011;57424;53.128;6.406;2024-02-16T07:23:25;4.75;;;2.80;;
66597;SDS011;57424;53.128;6.406;2024-02-16T07:25:51;4.50;;;2.80;;
66597;SDS011;57424;53.128;6.406;2024-02-16T07:28:20;5.05;;;2.70;;
66597;SDS011;57424;53.128;6.406;2024-02-16T07:30:45;4.38;;;3.25;;
66597;SDS011;57424;53.128;6.406;2024-02-16T07:33:11;4.90;;;3.05;;
66597;SDS011;57424;53.128;6.406;2024-02-16T07:35:36;5.30;;;2.90;;
66597;SDS011;57424;53.128;6.406;2024-02-16T07:38:03;4.07;;;2.70;;
66597;SDS011;57424;53.128;6.406;2024-02-16T07:40:29;4.30;;;2.72;;
66597;SDS011;57424;53.128;6.406;2024-02-16T07:42:55;6.38;;;3.25;;
66597;SDS011;57424;53.128;6.406;2024-02-16T07:45:21;3.33;;;2.50;;
66597;SDS011;57424;53.128;6.406;2024-02-16T07:47:47;4.10;;;2.78;;
66597;SDS011;57424;53.128;6.406;2024-02-16T07:50:13;4.07;;;2.65;;
66597;SDS011;57424;53.128;6.406;2024-02-16T07:52:38;4.25;;;2.88;;
66597;SDS011;57424;53.128;6.406;2024-02-16T07:55:05;4.82;;;3.10;;
66597;SDS011;57424;53.128;6.406;2024-02-16T07:57:31;4.50;;;3.15;;
66597;SDS011;57424;53.128;6.406;2024-02-16T07:59:57;5.80;;;3.13;;
66597;SDS011;57424;53.128;6.406;2024-02-16T08:02:22;4.78;;;3.17;;
66597;SDS011;57424;53.128;6.406;2024-02-16T08:04:48;5.40;;;3.13;;
66597;SDS011;57424;53.128;6.406;2024-02-16T08:07:14;4.93;;;2.90;;
66597;SDS011;57424;53.128;6.406;2024-02-16T08:09:43;4.72;;;3.13;;
66597;SDS011;57424;53.128;6.406;2024-02-16T08:12:12;10.23;;;3.20;;
66597;SDS011;57424;53.128;6.406;2024-02-16T08:14:38;5.22;;;3.10;;
66597;SDS011;57424;53.128;6.406;2024-02-16T08:17:07;5.53;;;3.33;;
66597;SDS011;57424;53.128;6.406;2024-02-16T08:19:34;4.13;;;3.15;;
66597;SDS011;57424;53.128;6.406;2024-02-16T08:22:01;5.35;;;3.25;;
66597;SDS011;57424;53.128;6.406;2024-02-16T08:24:29;5.93;;;3.70;;
66597;SDS011;57424;53.128;6.406;2024-02-16T08:26:58;6.35;;;3.42;;
66597;SDS011;57424;53.128;6.406;2024-02-16T08:29:24;6.20;;;3.35;;
66597;SDS011;57424;53.128;6.406;2024-02-16T08:31:50;4.45;;;3.25;;
66597;SDS011;57424;53.128;6.406;2024-02-16T08:34:16;5.10;;;3.50;;
66597;SDS011;57424;53.128;6.406;2024-02-16T08:36:45;4.53;;;3.20;;
66597;SDS011;57424;53.128;6.406;2024-02-16T08:39:15;5.78;;;3.70;;
66597;SDS011;57424;53.128;6.406;2024-02-16T08:41:41;5.95;;;3.28;;
66597;SDS011;57424;53.128;6.406;2024-02-16T08:44:09;3.97;;;3.00;;
66597;SDS011;57424;53.128;6.406;2024-02-16T08:46:35;4.57;;;3.22;;
66597;SDS011;57424;53.128;6.406;2024-02-16T08:49:01;6.88;;;4.28;;
66597;SDS011;57424;53.128;6.406;2024-02-16T08:51:28;5.53;;;3.70;;
66597;SDS011;57424;53.128;6.406;2024-02-16T08:53:54;4.22;;;3.78;;
66597;SDS011;57424;53.128;6.406;2024-02-16T08:56:20;5.32;;;3.38;;
66597;SDS011;57424;53.128;6.406;2024-02-16T08:58:45;5.45;;;3.53;;
66597;SDS011;57424;53.128;6.406;2024-02-16T09:01:11;4.90;;;3.63;;
66597;SDS011;57424;53.128;6.406;2024-02-16T09:03:37;5.45;;;3.92;;
66597;SDS011;57424;53.128;6.406;2024-02-16T09:06:05;6.15;;;4.70;;
66597;SDS011;57424;53.128;6.406;2024-02-16T09:08:30;5.32;;;3.80;;
66597;SDS011;57424;53.128;6.406;2024-02-16T09:11:07;6.32;;;3.60;;
66597;SDS011;57424;53.128;6.406;2024-02-16T09:13:33;4.93;;;3.70;;
66597;SDS011;57424;53.128;6.406;2024-02-16T09:15:59;6.55;;;3.75;;
66597;SDS011;57424;53.128;6.406;2024-02-16T09:18:25;5.38;;;3.72;;
66597;SDS011;57424;53.128;6.406;2024-02-16T09:20:51;5.00;;;3.90;;
66597;SDS011;57424;53.128;6.406;2024-02-16T09:23:16;5.18;;;3.70;;
66597;SDS011;57424;53.128;6.406;2024-02-16T09:25:42;5.25;;;4.03;;
66597;SDS011;57424;53.128;6.406;2024-02-16T09:28:08;5.45;;;3.88;;
66597;SDS011;57424;53.128;6.406;2024-02-16T09:30:36;6.53;;;4.15;;
66597;SDS011;57424;53.128;6.406;2024-02-16T09:33:02;5.80;;;4.03;;
66597;SDS011;57424;53.128;6.406;2024-02-16T09:35:28;7.10;;;4.15;;
66597;SDS011;57424;53.128;6.406;2024-02-16T09:37:53;5.88;;;4.03;;
66597;SDS011;57424;53.128;6.406;2024-02-16T09:40:19;6.85;;;4.15;;
66597;SDS011;57424;53.128;6.406;2024-02-16T09:42:47;6.25;;;3.72;;
66597;SDS011;57424;53.128;6.406;2024-02-16T09:45:17;6.43;;;4.20;;
66597;SDS011;57424;53.128;6.406;2024-02-16T09:47:43;5.32;;;3.70;;
66597;SDS011;57424;53.128;6.406;2024-02-16T09:50:11;5.25;;;4.03;;
66597;SDS011;57424;53.128;6.406;2024-02-16T09:52:37;6.43;;;3.85;;
66597;SDS011;57424;53.128;6.406;2024-02-16T09:55:03;5.70;;;3.78;;
66597;SDS011;57424;53.128;6.406;2024-02-16T09:57:32;6.30;;;4.07;;
66597;SDS011;57424;53.128;6.406;2024-02-16T09:59:57;7.90;;;4.38;;
66597;SDS011;57424;53.128;6.406;2024-02-16T10:02:24;8.18;;;4.25;;
66597;SDS011;57424;53.128;6.406;2024-02-16T10:04:49;7.60;;;4.20;;
66597;SDS011;57424;53.128;6.406;2024-02-16T10:07:15;6.22;;;4.07;;
66597;SDS011;57424;53.128;6.406;2024-02-16T10:09:41;5.75;;;4.40;;
66597;SDS011;57424;53.128;6.406;2024-02-16T10:12:06;10.90;;;5.13;;
66597;SDS011;57424;53.128;6.406;2024-02-16T10:14:32;6.13;;;4.22;;
66597;SDS011;57424;53.128;6.406;2024-02-16T10:17:01;6.82;;;4.60;;
66597;SDS011;57424;53.128;6.406;2024-02-16T10:19:28;7.88;;;4.30;;
66597;SDS011;57424;53.128;6.406;2024-02-16T10:22:08;6.63;;;4.50;;
66597;SDS011;57424;53.128;6.406;2024-02-16T10:24:35;10.00;;;5.38;;
66597;SDS011;57424;53.128;6.406;2024-02-16T10:27:03;6.55;;;4.20;;
66597;SDS011;57424;53.128;6.406;2024-02-16T10:29:38;8.05;;;4.38;;
66597;SDS011;57424;53.128;6.406;2024-02-16T10:32:08;8.05;;;4.97;;
66597;SDS011;57424;53.128;6.406;2024-02-16T10:34:34;6.78;;;4.55;;
66597;SDS011;57424;53.128;6.406;2024-02-16T10:37:06;7.97;;;5.05;;
66597;SDS011;57424;53.128;6.406;2024-02-16T10:39:34;8.73;;;4.47;;
66597;SDS011;57424;53.128;6.406;2024-02-16T10:42:01;7.05;;;4.70;;
66597;SDS011;57424;53.128;6.406;2024-02-16T10:44:27;8.00;;;4.70;;
66597;SDS011;57424;53.128;6.406;2024-02-16T10:46:54;6.57;;;4.53;;
66597;SDS011;57424;53.128;6.406;2024-02-16T10:49:22;8.55;;;5.55;;
66597;SDS011;57424;53.128;6.406;2024-02-16T10:51:50;8.57;;;5.30;;
66597;SDS011;57424;53.128;6.406;2024-02-16T10:54:25;7.15;;;5.47;;
66597;SDS011;57424;53.128;6.406;2024-02-16T10:56:54;10.77;;;5.80;;
66597;SDS011;57424;53.128;6.406;2024-02-16T10:59:20;9.45;;;5.68;;
66597;SDS011;57424;53.128;6.406;2024-02-16T11:01:46;8.00;;;5.03;;
66597;SDS011;57424;53.128;6.406;2024-02-16T11:04:15;9.90;;;5.53;;
66597;SDS011;57424;53.128;6.406;2024-02-16T11:06:49;8.30;;;5.43;;
66597;SDS011;57424;53.128;6.406;2024-02-16T11:11:52;7.80;;;5.25;;
66597;SDS011;57424;53.128;6.406;2024-02-16T11:14:18;7.35;;;5.45;;
66597;SDS011;57424;53.128;6.406;2024-02-16T11:16:46;9.35;;;5.63;;
66597;SDS011;57424;53.128;6.406;2024-02-16T11:19:12;10.27;;;6.32;;
66597;SDS011;57424;53.128;6.406;2024-02-16T11:22:02;11.93;;;6.47;;
66597;SDS011;57424;53.128;6.406;2024-02-16T11:24:33;12.88;;;7.03;;
66597;SDS011;57424;53.128;6.406;2024-02-16T11:27:04;11.45;;;6.40;;
66597;SDS011;57424;53.128;6.406;2024-02-16T11:29:34;10.52;;;6.70;;
66597;SDS011;57424;53.128;6.406;2024-02-16T11:32:03;10.70;;;6.40;;
66597;SDS011;57424;53.128;6.406;2024-02-16T11:34:32;14.77;;;6.30;;
66597;SDS011;57424;53.128;6.406;2024-02-16T11:36:59;11.95;;;5.68;;
66597;SDS011;57424;53.128;6.406;2024-02-16T11:39:28;10.48;;;6.03;;
66597;SDS011;57424;53.128;6.406;2024-02-16T11:42:04;11.88;;;7.03;;
66597;SDS011;57424;53.128;6.406;2024-02-16T11:44:31;9.10;;;5.93;;
66597;SDS011;57424;53.128;6.406;2024-02-16T11:46:59;10.05;;;5.20;;
66597;SDS011;57424;53.128;6.406;2024-02-16T11:49:26;9.10;;;5.40;;
66597;SDS011;57424;53.128;6.406;2024-02-16T11:51:53;9.68;;;5.43;;
66597;SDS011;57424;53.128;6.406;2024-02-16T11:54:19;9.90;;;5.70;;
66597;SDS011;57424;53.128;6.406;2024-02-16T11:56:45;10.00;;;5.63;;
66597;SDS011;57424;53.128;6.406;2024-02-16T11:59:14;7.85;;;5.05;;
66597;SDS011;57424;53.128;6.406;2024-02-16T12:06:52;7.57;;;5.03;;
66597;SDS011;57424;53.128;6.406;2024-02-16T12:09:21;10.60;;;4.90;;
66597;SDS011;57424;53.128;6.406;2024-02-16T12:11:48;9.43;;;4.57;;
66597;SDS011;57424;53.128;6.406;2024-02-16T12:14:14;7.30;;;4.40;;
66597;SDS011;57424;53.128;6.406;2024-02-16T12:16:51;7.57;;;5.25;;
66597;SDS011;57424;53.128;6.406;2024-02-16T12:19:20;7.10;;;4.80;;
66597;SDS011;57424;53.128;6.406;2024-02-16T12:21:50;6.78;;;4.50;;
66597;SDS011;57424;53.128;6.406;2024-02-16T12:24:17;6.27;;;4.20;;
66597;SDS011;57424;53.128;6.406;2024-02-16T12:26:43;6.72;;;4.50;;
66597;SDS011;57424;53.128;6.406;2024-02-16T12:29:09;8.05;;;4.65;;
66597;SDS011;57424;53.128;6.406;2024-02-16T12:31:37;6.25;;;4.70;;
66597;SDS011;57424;53.128;6.406;2024-02-16T12:34:05;7.20;;;4.50;;
66597;SDS011;57424;53.128;6.406;2024-02-16T12:36:32;6.13;;;4.83;;
66597;SDS011;57424;53.128;6.406;2024-02-16T12:38:59;5.90;;;4.22;;
66597;SDS011;57424;53.128;6.406;2024-02-16T12:41:25;5.47;;;4.25;;
66597;SDS011;57424;53.128;6.406;2024-02-16T12:43:51;4.88;;;3.92;;
66597;SDS011;57424;53.128;6.406;2024-02-16T12:46:16;6.47;;;4.30;;
66597;SDS011;57424;53.128;6.406;2024-02-16T12:48:43;5.45;;;4.10;;
66597;SDS011;57424;53.128;6.406;2024-02-16T12:51:08;6.47;;;4.40;;
66597;SDS011;57424;53.128;6.406;2024-02-16T12:53:36;5.63;;;3.67;;
66597;SDS011;57424;53.128;6.406;2024-02-16T12:56:06;6.00;;;3.97;;
66597;SDS011;57424;53.128;6.406;2024-02-16T12:58:33;5.78;;;3.58;;
66597;SDS011;57424;53.128;6.406;2024-02-16T13:00:59;5.68;;;3.85;;
66597;SDS011;57424;53.128;6.406;2024-02-16T13:03:25;6.45;;;4.40;;
66597;SDS011;57424;53.128;6.406;2024-02-16T13:05:50;7.78;;;4.63;;
66597;SDS011;57424;53.128;6.406;2024-02-16T13:08:16;7.32;;;4.18;;
66597;SDS011;57424;53.128;6.406;2024-02-16T13:10:41;5.53;;;3.60;;
66597;SDS011;57424;53.128;6.406;2024-02-16T13:13:07;5.60;;;3.78;;
66597;SDS011;57424;53.128;6.406;2024-02-16T13:15:33;5.38;;;4.07;;
66597;SDS011;57424;53.128;6.406;2024-02-16T13:17:58;6.90;;;4.45;;
66597;SDS011;57424;53.128;6.406;2024-02-16T13:20:24;7.38;;;4.68;;
66597;SDS011;57424;53.128;6.406;2024-02-16T13:22:50;4.10;;;3.22;;
66597;SDS011;57424;53.128;6.406;2024-02-16T13:25:15;6.47;;;3.97;;
66597;SDS011;57424;53.128;6.406;2024-02-16T13:27:41;4.30;;;3.13;;
66597;SDS011;57424;53.128;6.406;2024-02-16T13:30:07;7.60;;;4.07;;
66597;SDS011;57424;53.128;6.406;2024-02-16T13:32:33;5.10;;;2.67;;
66597;SDS011;57424;53.128;6.406;2024-02-16T13:35:01;4.53;;;3.55;;
66597;SDS011;57424;53.128;6.406;2024-02-16T13:37:27;4.57;;;3.40;;
66597;SDS011;57424;53.128;6.406;2024-02-16T13:39:53;3.88;;;2.97;;
66597;SDS011;57424;53.128;6.406;2024-02-16T13:42:19;4.43;;;3.03;;
66597;SDS011;57424;53.128;6.406;2024-02-16T13:44:44;5.07;;;3.50;;
66597;SDS011;57424;53.128;6.406;2024-02-16T13:47:10;7.65;;;3.88;;
66597;SDS011;57424;53.128;6.406;2024-02-16T13:49:36;4.47;;;3.45;;
66597;SDS011;57424;53.128;6.406;2024-02-16T13:52:04;6.03;;;3.35;;
66597;SDS011;57424;53.128;6.406;2024-02-16T13:54:30;5.70;;;3.80;;
66597;SDS011;57424;53.128;6.406;2024-02-16T13:56:55;8.05;;;3.25;;
66597;SDS011;57424;53.128;6.406;2024-02-16T13:59:21;6.25;;;4.25;;
66597;SDS011;57424;53.128;6.406;2024-02-16T14:01:47;3.53;;;3.03;;
66597;SDS011;57424;53.128;6.406;2024-02-16T14:04:13;4.65;;;3.25;;
66597;SDS011;57424;53.128;6.406;2024-02-16T14:06:41;6.05;;;3.50;;
66597;SDS011;57424;53.128;6.406;2024-02-16T14:09:07;6.07;;;3.38;;
66597;SDS011;57424;53.128;6.406;2024-02-16T14:11:38;5.82;;;3.20;;
66597;SDS011;57424;53.128;6.406;2024-02-16T14:14:06;4.30;;;3.40;;
66597;SDS011;57424;53.128;6.406;2024-02-16T14:16:32;6.35;;;3.30;;
66597;SDS011;57424;53.128;6.406;2024-02-16T14:18:58;3.60;;;2.70;;
66597;SDS011;57424;53.128;6.406;2024-02-16T14:21:23;5.65;;;3.20;;
66597;SDS011;57424;53.128;6.406;2024-02-16T14:23:49;4.40;;;3.35;;
66597;SDS011;57424;53.128;6.406;2024-02-16T14:26:14;6.10;;;3.42;;
66597;SDS011;57424;53.128;6.406;2024-02-16T14:28:40;6.40;;;3.20;;
66597;SDS011;57424;53.128;6.406;2024-02-16T14:31:06;4.95;;;3.20;;
66597;SDS011;57424;53.128;6.406;2024-02-16T14:33:32;5.05;;;2.92;;
66597;SDS011;57424;53.128;6.406;2024-02-16T14:35:57;4.60;;;3.22;;
66597;SDS011;57424;53.128;6.406;2024-02-16T14:38:23;5.47;;;3.17;;
66597;SDS011;57424;53.128;6.406;2024-02-16T14:40:52;5.35;;;3.45;;
66597;SDS011;57424;53.128;6.406;2024-02-16T14:43:17;6.15;;;3.60;;
66597;SDS011;57424;53.128;6.406;2024-02-16T14:45:46;6.22;;;3.72;;
66597;SDS011;57424;53.128;6.406;2024-02-16T14:48:11;7.15;;;3.75;;
66597;SDS011;57424;53.128;6.406;2024-02-16T14:50:37;6.30;;;4.40;;
66597;SDS011;57424;53.128;6.406;2024-02-16T14:53:02;6.38;;;4.32;;
66597;SDS011;57424;53.128;6.406;2024-02-16T14:55:28;6.60;;;4.88;;
66597;SDS011;57424;53.128;6.406;2024-02-16T14:57:55;6.80;;;5.22;;
66597;SDS011;57424;53.128;6.406;2024-02-16T15:00:20;7.80;;;5.00;;
66597;SDS011;57424;53.128;6.406;2024-02-16T15:02:48;7.15;;;5.28;;